createdAt,value
2017-02-22T00:00:16.603Z,28.5
2017-02-22T00:01:16.624Z,28.5
2017-02-22T00:02:16.729Z,28.5
2017-02-22T00:03:15.061Z,28.5
2017-02-22T00:04:15.059Z,28.5
2017-02-22T00:05:16.706Z,28.5
2017-02-22T00:06:15.205Z,28.5
2017-02-22T00:07:15.248Z,28.5
2017-02-22T00:08:16.782Z,28.5
2017-02-22T00:09:16.886Z,28.5
2017-02-22T00:10:16.909Z,28.5
2017-02-22T00:11:15.247Z,28.5
2017-02-22T00:12:16.895Z,28.5
2017-02-22T00:13:15.310Z,28.5
2017-02-22T00:14:17.134Z,28.5
2017-02-22T00:15:17.105Z,28.5
2017-02-22T00:16:17.316Z,28.4
2017-02-22T00:17:17.168Z,28.5
2017-02-22T00:18:17.274Z,28.5
2017-02-22T00:19:15.690Z,28.5
2017-02-22T00:20:15.696Z,28.5
2017-02-22T00:21:15.786Z,28.5
2017-02-22T00:22:17.589Z,28.5
2017-02-22T00:23:16.048Z,28.5
2017-02-22T00:24:17.694Z,28.5
2017-02-22T00:25:17.786Z,28.5
2017-02-22T00:26:17.725Z,28.5
2017-02-22T00:27:16.209Z,28.5
2017-02-22T00:28:17.844Z,28.5
2017-02-22T00:29:16.294Z,28.5
2017-02-22T00:30:16.361Z,28.5
2017-02-22T00:31:18.053Z,28.5
2017-02-22T00:32:16.406Z,28.5
2017-02-22T00:33:18.117Z,28.5
2017-02-22T00:34:18.148Z,28.5
2017-02-22T00:35:16.636Z,28.5
2017-02-22T00:36:18.252Z,28.5
2017-02-22T00:37:18.182Z,28.4
2017-02-22T00:38:16.611Z,28.5
2017-02-22T00:39:16.813Z,28.5
2017-02-22T00:40:16.861Z,28.5
2017-02-22T00:41:16.872Z,28.5
2017-02-22T00:42:16.820Z,28.5
2017-02-22T00:43:18.590Z,28.4
2017-02-22T00:44:18.541Z,28.5
2017-02-22T00:45:16.956Z,28.1
2017-02-22T00:46:18.556Z,28.5
2017-02-22T00:47:18.685Z,28.5
2017-02-22T00:48:18.755Z,28.5
2017-02-22T00:49:17.195Z,28.5
2017-02-22T00:50:17.429Z,28.5
2017-02-22T00:51:18.963Z,28.5
2017-02-22T00:52:17.424Z,28.4
2017-02-22T00:53:17.432Z,28.4
2017-02-22T00:54:17.394Z,28.5
2017-02-22T00:55:17.527Z,28.5
2017-02-22T00:56:19.178Z,28.5
2017-02-22T00:57:19.046Z,28.4
2017-02-22T00:58:17.533Z,28.5
2017-02-22T00:59:17.567Z,28.5
2017-02-22T01:00:19.310Z,28.5
2017-02-22T01:01:19.365Z,28.5
2017-02-22T01:02:19.265Z,28.5
2017-02-22T01:03:19.525Z,28.5
2017-02-22T01:04:19.491Z,28.5
2017-02-22T01:05:19.563Z,28.5
2017-02-22T01:06:17.902Z,28.5
2017-02-22T01:07:19.692Z,28.5
2017-02-22T01:08:18.203Z,28.5
2017-02-22T01:09:18.084Z,28.5
2017-02-22T01:10:18.292Z,28.5
2017-02-22T01:11:18.366Z,28.5
2017-02-22T01:12:20.005Z,28.4
2017-02-22T01:13:18.585Z,28.4
2017-02-22T01:14:18.304Z,28.4
2017-02-22T01:15:20.160Z,28.4
2017-02-22T01:16:20.116Z,28.5
2017-02-22T01:17:18.501Z,28.5
2017-02-22T01:18:20.286Z,28.5
2017-02-22T01:19:18.934Z,28.5
2017-02-22T01:20:20.388Z,28.5
2017-02-22T01:21:18.879Z,28.4
2017-02-22T01:22:20.476Z,28.5
2017-02-22T01:23:18.858Z,28.5
2017-02-22T01:24:18.937Z,28.5
2017-02-22T01:25:20.803Z,28.4
2017-02-22T01:26:18.959Z,28.5
2017-02-22T01:27:20.551Z,28.5
2017-02-22T01:28:19.025Z,28.5
2017-02-22T01:29:20.727Z,28.5
2017-02-22T01:30:19.072Z,28.5
2017-02-22T01:31:20.842Z,28.5
2017-02-22T01:32:20.866Z,28.4
2017-02-22T01:33:20.807Z,28.4
2017-02-22T01:34:19.382Z,28.4
2017-02-22T01:35:20.962Z,28.4
2017-02-22T01:36:19.418Z,28.4
2017-02-22T01:37:21.113Z,28.4
2017-02-22T01:38:21.018Z,28.4
2017-02-22T01:39:19.584Z,28.4
2017-02-22T01:40:21.031Z,28.4
2017-02-22T01:41:21.113Z,28.4
2017-02-22T01:42:21.260Z,28.4
2017-02-22T01:43:19.791Z,28.4
2017-02-22T01:44:20.302Z,28.4
2017-02-22T01:45:19.711Z,28.4
2017-02-22T01:46:21.959Z,28.4
2017-02-22T01:47:19.838Z,28.4
2017-02-22T01:48:21.615Z,28.4
2017-02-22T01:49:23.424Z,28.4
2017-02-22T01:50:21.557Z,28.4
2017-02-22T01:51:20.060Z,28.4
2017-02-22T01:52:21.785Z,28.4
2017-02-22T01:53:21.855Z,28.4
2017-02-22T01:54:20.357Z,28.4
2017-02-22T01:55:22.169Z,28.5
2017-02-22T01:56:21.897Z,28.5
2017-02-22T01:57:20.328Z,28.5
2017-02-22T01:58:22.026Z,28.5
2017-02-22T01:59:22.042Z,28.4
2017-02-22T02:00:22.160Z,28.5
2017-02-22T02:01:20.712Z,28.5
2017-02-22T02:02:22.207Z,28.4
2017-02-22T02:03:22.282Z,28.5
2017-02-22T02:04:20.799Z,28.5
2017-02-22T02:05:22.440Z,28.4
2017-02-22T02:06:20.932Z,28.4
2017-02-22T02:07:22.752Z,28.5
2017-02-22T02:08:22.601Z,28.5
2017-02-22T02:09:22.701Z,28.5
2017-02-22T02:10:21.096Z,28.4
2017-02-22T02:11:22.659Z,28.5
2017-02-22T02:12:21.217Z,28.5
2017-02-22T02:13:23.011Z,28.5
2017-02-22T02:14:21.294Z,28.4
2017-02-22T02:15:21.393Z,28.5
2017-02-22T02:16:21.347Z,28.5
2017-02-22T02:17:22.994Z,28.4
2017-02-22T02:18:21.413Z,28.4
2017-02-22T02:19:23.266Z,28.4
2017-02-22T02:20:22.980Z,28.4
2017-02-22T02:21:23.177Z,28.5
2017-02-22T02:22:23.257Z,28.5
2017-02-22T02:23:23.292Z,28.5
2017-02-22T02:24:21.683Z,28.5
2017-02-22T02:25:21.977Z,28.4
2017-02-22T02:26:21.743Z,28.5
2017-02-22T02:27:21.938Z,28.5
2017-02-22T02:28:22.413Z,28.5
2017-02-22T02:29:23.560Z,28.5
2017-02-22T02:30:22.105Z,28.4
2017-02-22T02:31:22.342Z,28.5
2017-02-22T02:32:22.228Z,28.4
2017-02-22T02:33:22.117Z,28.4
2017-02-22T02:34:22.086Z,28.4
2017-02-22T02:35:22.160Z,28.4
2017-02-22T02:36:23.882Z,28.4
2017-02-22T02:37:24.044Z,28.4
2017-02-22T02:38:23.973Z,28.4
2017-02-22T02:39:22.452Z,28.4
2017-02-22T02:40:24.039Z,28.4
2017-02-22T02:41:24.129Z,28.4
2017-02-22T02:42:24.320Z,28.4
2017-02-22T02:43:22.849Z,28.4
2017-02-22T02:44:22.775Z,28.4
2017-02-22T02:45:24.352Z,28.4
2017-02-22T02:46:23.696Z,28.4
2017-02-22T02:47:24.500Z,28.4
2017-02-22T02:48:24.671Z,28.4
2017-02-22T02:49:23.395Z,28.4
2017-02-22T02:50:24.671Z,28.4
2017-02-22T02:51:23.129Z,28.4
2017-02-22T02:52:23.231Z,28.4
2017-02-22T02:53:24.689Z,28.4
2017-02-22T02:54:23.241Z,28.4
2017-02-22T02:55:23.493Z,28.4
2017-02-22T02:56:24.976Z,28.4
2017-02-22T02:57:25.121Z,28.4
2017-02-22T02:58:25.140Z,28.4
2017-02-22T02:59:23.407Z,28.4
2017-02-22T03:00:23.584Z,28.4
2017-02-22T03:01:23.763Z,28.4
2017-02-22T03:02:25.142Z,28.4
2017-02-22T03:03:23.673Z,28.4
2017-02-22T03:04:23.867Z,28.4
2017-02-22T03:05:23.845Z,28.4
2017-02-22T03:06:25.518Z,28.4
2017-02-22T03:07:25.608Z,28.4
2017-02-22T03:08:25.532Z,28.4
2017-02-22T03:09:24.811Z,28.4
2017-02-22T03:10:24.148Z,28.4
2017-02-22T03:11:24.202Z,28.4
2017-02-22T03:12:25.771Z,28.4
2017-02-22T03:13:25.877Z,28.4
2017-02-22T03:14:24.257Z,28.4
2017-02-22T03:15:26.469Z,28.4
2017-02-22T03:16:24.348Z,28.4
2017-02-22T03:17:25.014Z,28.4
2017-02-22T03:18:24.376Z,28.4
2017-02-22T03:19:26.362Z,28.5
2017-02-22T03:20:24.630Z,28.5
2017-02-22T03:21:24.606Z,28.5
2017-02-22T03:22:26.179Z,28.4
2017-02-22T03:23:26.200Z,28.4
2017-02-22T03:24:26.192Z,28.4
2017-02-22T03:25:26.505Z,28.4
2017-02-22T03:26:27.015Z,28.4
2017-02-22T03:27:24.835Z,28.4
2017-02-22T03:28:25.062Z,28.4
2017-02-22T03:29:26.675Z,28.4
2017-02-22T03:30:26.636Z,28.4
2017-02-22T03:31:25.472Z,28.4
2017-02-22T03:32:26.790Z,28.4
2017-02-22T03:33:26.762Z,28.4
2017-02-22T03:34:26.832Z,28.4
2017-02-22T03:35:26.933Z,28.4
2017-02-22T03:36:27.290Z,28.4
2017-02-22T03:37:25.598Z,28.4
2017-02-22T03:38:25.506Z,28.4
2017-02-22T03:39:27.064Z,28.4
2017-02-22T03:40:25.379Z,28.4
2017-02-22T03:41:27.240Z,28.4
2017-02-22T03:42:27.395Z,28.4
2017-02-22T03:43:25.732Z,28.4
2017-02-22T03:44:25.847Z,28.4
2017-02-22T03:45:27.281Z,28.4
2017-02-22T03:46:25.856Z,28.4
2017-02-22T03:47:25.854Z,28.4
2017-02-22T03:48:25.977Z,28.4
2017-02-22T03:49:27.348Z,28.4
2017-02-22T03:50:27.443Z,28.4
2017-02-22T03:51:27.557Z,28.4
2017-02-22T03:52:27.752Z,28.4
2017-02-22T03:53:28.921Z,28.4
2017-02-22T03:54:26.359Z,28.4
2017-02-22T03:55:27.861Z,28.4
2017-02-22T03:56:27.987Z,28.4
2017-02-22T03:57:26.270Z,28.4
2017-02-22T03:58:26.390Z,28.4
2017-02-22T03:59:26.321Z,28.4
2017-02-22T04:00:26.540Z,28.4
2017-02-22T04:01:26.304Z,28.4
2017-02-22T04:02:28.055Z,28.4
2017-02-22T04:03:28.067Z,28.4
2017-02-22T04:04:28.107Z,28.4
2017-02-22T04:05:26.685Z,28.4
2017-02-22T04:06:26.809Z,28.4
2017-02-22T04:07:28.402Z,28.4
2017-02-22T04:08:26.772Z,28.4
2017-02-22T04:09:26.795Z,28.4
2017-02-22T04:10:27.044Z,28.4
2017-02-22T04:11:28.555Z,28.4
2017-02-22T04:12:27.025Z,28.4
2017-02-22T04:13:27.036Z,28.4
2017-02-22T04:14:28.577Z,28.4
2017-02-22T04:15:27.045Z,28.4
2017-02-22T04:16:27.143Z,28.4
2017-02-22T04:17:27.191Z,28.4
2017-02-22T04:18:27.548Z,28.4
2017-02-22T04:19:27.379Z,28.4
2017-02-22T04:20:27.245Z,28.4
2017-02-22T04:21:28.889Z,28.4
2017-02-22T04:22:29.058Z,28.4
2017-02-22T04:23:28.957Z,28.4
2017-02-22T04:24:29.157Z,28.4
2017-02-22T04:25:27.409Z,28.4
2017-02-22T04:26:27.362Z,28.4
2017-02-22T04:27:29.168Z,28.4
2017-02-22T04:28:29.076Z,28.4
2017-02-22T04:29:29.158Z,28.4
2017-02-22T04:30:27.774Z,28.4
2017-02-22T04:31:27.607Z,28.4
2017-02-22T04:32:29.129Z,28.4
2017-02-22T04:33:27.779Z,28.4
2017-02-22T04:34:27.793Z,28.4
2017-02-22T04:35:27.792Z,28.4
2017-02-22T04:36:29.649Z,28.4
2017-02-22T04:37:29.375Z,28.4
2017-02-22T04:38:27.896Z,28.4
2017-02-22T04:39:29.624Z,28.4
2017-02-22T04:40:28.049Z,28.4
2017-02-22T04:41:28.007Z,28.4
2017-02-22T04:42:29.813Z,28.4
2017-02-22T04:43:28.089Z,28.4
2017-02-22T04:44:28.100Z,28.4
2017-02-22T04:45:28.272Z,28.4
2017-02-22T04:46:31.105Z,28.4
2017-02-22T04:47:29.889Z,28.4
2017-02-22T04:48:28.490Z,28.4
2017-02-22T04:49:28.275Z,28.4
2017-02-22T04:50:28.390Z,28.4
2017-02-22T04:51:29.912Z,28.4
2017-02-22T04:52:28.430Z,28.4
2017-02-22T04:53:30.153Z,28.4
2017-02-22T04:54:28.713Z,28.4
2017-02-22T04:55:28.774Z,28.4
2017-02-22T04:56:28.865Z,28.4
2017-02-22T04:57:30.450Z,28.4
2017-02-22T04:58:30.363Z,28.4
2017-02-22T04:59:30.408Z,28.4
2017-02-22T05:00:30.612Z,28.4
2017-02-22T05:01:28.912Z,28.4
2017-02-22T05:02:30.480Z,28.4
2017-02-22T05:03:30.660Z,28.4
2017-02-22T05:04:30.555Z,28.4
2017-02-22T05:05:30.699Z,28.4
2017-02-22T05:06:29.314Z,28.4
2017-02-22T05:07:30.750Z,28.4
2017-02-22T05:08:29.091Z,28.4
2017-02-22T05:09:30.724Z,28.4
2017-02-22T05:10:29.209Z,28.4
2017-02-22T05:11:30.942Z,28.4
2017-02-22T05:12:31.033Z,28.4
2017-02-22T05:13:31.528Z,28.4
2017-02-22T05:14:29.467Z,28.4
2017-02-22T05:15:29.354Z,28.4
2017-02-22T05:16:30.947Z,28.4
2017-02-22T05:17:30.998Z,28.4
2017-02-22T05:18:31.189Z,28.4
2017-02-22T05:19:29.645Z,28.4
2017-02-22T05:20:29.582Z,28.4
2017-02-22T05:21:31.822Z,28.4
2017-02-22T05:22:31.366Z,28.4
2017-02-22T05:23:29.715Z,28.4
2017-02-22T05:24:30.117Z,28.4
2017-02-22T05:25:29.873Z,28.4
2017-02-22T05:26:29.968Z,28.4
2017-02-22T05:27:31.590Z,28.4
2017-02-22T05:28:30.012Z,28.4
2017-02-22T05:29:31.733Z,28.4
2017-02-22T05:30:32.090Z,28.4
2017-02-22T05:31:31.811Z,28.4
2017-02-22T05:32:30.275Z,28.4
2017-02-22T05:33:32.622Z,28.4
2017-02-22T05:34:31.912Z,28.4
2017-02-22T05:35:31.814Z,28.5
2017-02-22T05:36:30.468Z,28.4
2017-02-22T05:37:31.885Z,28.4
2017-02-22T05:38:30.398Z,28.4
2017-02-22T05:39:30.593Z,28.4
2017-02-22T05:40:30.631Z,28.4
2017-02-22T05:41:32.271Z,28.4
2017-02-22T05:42:32.477Z,28.4
2017-02-22T05:43:30.835Z,28.4
2017-02-22T05:44:30.874Z,28.4
2017-02-22T05:45:30.797Z,28.4
2017-02-22T05:46:32.560Z,28.4
2017-02-22T05:47:32.446Z,28.4
2017-02-22T05:48:31.380Z,28.4
2017-02-22T05:49:32.630Z,28.4
2017-02-22T05:50:31.037Z,28.4
2017-02-22T05:51:31.254Z,28.4
2017-02-22T05:52:32.764Z,28.3
2017-02-22T05:53:31.201Z,28.4
2017-02-22T05:54:33.079Z,28.4
2017-02-22T05:55:31.411Z,28.4
2017-02-22T05:56:31.353Z,28.4
2017-02-22T05:57:32.986Z,28.4
2017-02-22T05:58:31.493Z,28.4
2017-02-22T05:59:33.170Z,28.3
2017-02-22T06:00:31.819Z,28.4
2017-02-22T06:01:33.460Z,28.4
2017-02-22T06:02:33.414Z,28.4
2017-02-22T06:03:31.918Z,28.4
2017-02-22T06:04:33.692Z,28.3
2017-02-22T06:05:32.015Z,28.4
2017-02-22T06:06:32.343Z,28.3
2017-02-22T06:07:32.259Z,28.4
2017-02-22T06:08:33.820Z,28.4
2017-02-22T06:09:32.238Z,28.4
2017-02-22T06:10:32.473Z,28.4
2017-02-22T06:11:33.997Z,28.4
2017-02-22T06:12:32.783Z,28.3
2017-02-22T06:13:32.488Z,28.4
2017-02-22T06:14:34.150Z,28.4
2017-02-22T06:15:32.688Z,28.4
2017-02-22T06:16:34.308Z,28.4
2017-02-22T06:17:34.392Z,28.4
2017-02-22T06:18:33.292Z,28.4
2017-02-22T06:19:32.908Z,28.4
2017-02-22T06:20:34.677Z,28.4
2017-02-22T06:21:33.119Z,28.4
2017-02-22T06:22:34.708Z,28.4
2017-02-22T06:23:33.181Z,28.4
2017-02-22T06:24:33.548Z,28.4
2017-02-22T06:25:34.013Z,28.4
2017-02-22T06:26:34.983Z,28.4
2017-02-22T06:27:35.080Z,28.4
2017-02-22T06:28:35.177Z,28.4
2017-02-22T06:29:33.534Z,28.4
2017-02-22T06:30:33.762Z,28.4
2017-02-22T06:31:33.631Z,28.4
2017-02-22T06:32:33.692Z,28.4
2017-02-22T06:33:33.869Z,28.4
2017-02-22T06:34:33.810Z,28.4
2017-02-22T06:35:33.901Z,28.4
2017-02-22T06:36:34.086Z,28.4
2017-02-22T06:37:35.540Z,28.4
2017-02-22T06:38:35.586Z,28.4
2017-02-22T06:39:33.942Z,28.4
2017-02-22T06:40:34.019Z,28.4
2017-02-22T06:41:33.919Z,28.4
2017-02-22T06:42:35.945Z,28.4
2017-02-22T06:43:35.693Z,28.4
2017-02-22T06:44:34.211Z,28.4
2017-02-22T06:45:35.783Z,28.4
2017-02-22T06:46:34.295Z,28.4
2017-02-22T06:47:35.810Z,28.4
2017-02-22T06:48:34.485Z,28.5
2017-02-22T06:49:34.386Z,28.4
2017-02-22T06:50:36.215Z,28.4
2017-02-22T06:51:34.440Z,28.4
2017-02-22T06:52:34.578Z,28.4
2017-02-22T06:53:36.159Z,28.4
2017-02-22T06:54:36.496Z,28.5
2017-02-22T06:55:34.795Z,28.4
2017-02-22T06:56:34.715Z,28.4
2017-02-22T06:57:37.049Z,28.5
2017-02-22T06:58:34.899Z,28.5
2017-02-22T06:59:35.023Z,28.5
2017-02-22T07:00:37.282Z,28.5
2017-02-22T07:01:36.619Z,28.5
2017-02-22T07:02:36.785Z,28.5
2017-02-22T07:03:35.330Z,28.5
2017-02-22T07:04:36.919Z,28.5
2017-02-22T07:05:36.906Z,28.5
2017-02-22T07:06:37.205Z,28.4
2017-02-22T07:07:35.391Z,28.5
2017-02-22T07:08:35.338Z,28.5
2017-02-22T07:09:36.890Z,28.5
2017-02-22T07:10:38.032Z,28.5
2017-02-22T07:11:37.123Z,28.5
2017-02-22T07:12:35.831Z,28.4
2017-02-22T07:13:35.573Z,28.5
2017-02-22T07:14:35.612Z,28.5
2017-02-22T07:15:35.882Z,28.5
2017-02-22T07:16:36.592Z,28.5
2017-02-22T07:17:37.511Z,28.5
2017-02-22T07:18:36.180Z,28.4
2017-02-22T07:19:36.224Z,28.5
2017-02-22T07:20:37.646Z,28.5
2017-02-22T07:21:36.278Z,28.4
2017-02-22T07:22:36.197Z,28.5
2017-02-22T07:23:36.292Z,28.4
2017-02-22T07:24:39.158Z,28.5
2017-02-22T07:25:37.054Z,28.5
2017-02-22T07:26:36.481Z,28.2
2017-02-22T07:27:37.221Z,27.6
2017-02-22T07:28:36.762Z,27
2017-02-22T07:29:36.659Z,26.4
2017-02-22T07:30:36.813Z,25.9
2017-02-22T07:31:36.787Z,25.4
2017-02-22T07:32:38.320Z,24.9
2017-02-22T07:33:36.891Z,24.7
2017-02-22T07:34:36.815Z,24.4
2017-02-22T07:35:36.935Z,24
2017-02-22T07:36:37.035Z,23.7
2017-02-22T07:37:38.603Z,23.5
2017-02-22T07:38:36.959Z,23.5
2017-02-22T07:39:36.984Z,23.6
2017-02-22T07:40:37.116Z,23.7
2017-02-22T07:41:37.083Z,23.9
2017-02-22T07:42:38.711Z,24.1
2017-02-22T07:43:37.309Z,24.3
2017-02-22T07:44:37.363Z,24.5
2017-02-22T07:45:37.292Z,24.6
2017-02-22T07:46:37.461Z,24.7
2017-02-22T07:47:40.310Z,24.9
2017-02-22T07:48:39.188Z,25
2017-02-22T07:49:39.292Z,25.1
2017-02-22T07:50:40.238Z,25.1
2017-02-22T07:51:39.260Z,25.2
2017-02-22T07:52:37.692Z,25.3
2017-02-22T07:53:37.788Z,25.3
2017-02-22T07:54:39.546Z,25.4
2017-02-22T07:55:39.473Z,25.4
2017-02-22T07:56:37.905Z,25.4
2017-02-22T07:57:37.909Z,25.4
2017-02-22T07:58:38.095Z,25.5
2017-02-22T07:59:39.691Z,25.5
2017-02-22T08:00:39.704Z,25.5
2017-02-22T08:01:39.765Z,25.5
2017-02-22T08:02:38.158Z,25.6
2017-02-22T08:03:39.648Z,25.6
2017-02-22T08:04:40.359Z,25.7
2017-02-22T08:05:39.943Z,25.7
2017-02-22T08:06:38.340Z,25.7
2017-02-22T08:07:40.056Z,25.7
2017-02-22T08:08:39.945Z,25.7
2017-02-22T08:09:40.039Z,25.8
2017-02-22T08:10:38.392Z,25.8
2017-02-22T08:11:40.015Z,25.8
2017-02-22T08:12:40.181Z,25.8
2017-02-22T08:13:38.574Z,25.8
2017-02-22T08:14:40.300Z,25.8
2017-02-22T08:15:40.374Z,25.8
2017-02-22T08:16:38.763Z,25.8
2017-02-22T08:17:40.983Z,25.8
2017-02-22T08:18:40.507Z,25.8
2017-02-22T08:19:40.389Z,25.8
2017-02-22T08:20:38.839Z,25.8
2017-02-22T08:21:38.865Z,25.8
2017-02-22T08:22:40.603Z,25.7
2017-02-22T08:23:40.687Z,25.7
2017-02-22T08:24:39.157Z,25.7
2017-02-22T08:25:40.895Z,25.7
2017-02-22T08:26:40.947Z,25.7
2017-02-22T08:27:41.040Z,25.7
2017-02-22T08:28:40.948Z,25.7
2017-02-22T08:29:41.065Z,25.6
2017-02-22T08:30:39.562Z,25.6
2017-02-22T08:31:40.218Z,25.6
2017-02-22T08:32:41.108Z,25.6
2017-02-22T08:33:39.635Z,25.6
2017-02-22T08:34:39.713Z,25.6
2017-02-22T08:35:39.821Z,25.6
2017-02-22T08:36:40.318Z,25.6
2017-02-22T08:37:39.763Z,25.6
2017-02-22T08:38:39.774Z,25.6
2017-02-22T08:39:39.995Z,25.6
2017-02-22T08:40:40.084Z,25.6
2017-02-22T08:41:40.146Z,25.6
2017-02-22T08:42:41.653Z,25.6
2017-02-22T08:43:40.667Z,25.6
2017-02-22T08:44:40.261Z,25.6
2017-02-22T08:45:40.234Z,25.7
2017-02-22T08:46:40.643Z,25.6
2017-02-22T08:47:41.922Z,25.7
2017-02-22T08:48:42.059Z,25.7
2017-02-22T08:49:40.417Z,25.7
2017-02-22T08:50:42.016Z,25.7
2017-02-22T08:51:42.165Z,25.8
2017-02-22T08:52:42.225Z,25.8
2017-02-22T08:53:42.396Z,25.8
2017-02-22T08:54:43.138Z,25.8
2017-02-22T08:55:44.010Z,25.8
2017-02-22T08:56:43.748Z,25.8
2017-02-22T08:57:42.393Z,25.8
2017-02-22T08:58:42.631Z,25.8
2017-02-22T08:59:42.402Z,25.8
2017-02-22T09:00:40.978Z,25.8
2017-02-22T09:01:42.491Z,25.8
2017-02-22T09:02:41.100Z,25.8
2017-02-22T09:03:41.095Z,25.8
2017-02-22T09:04:43.508Z,25.7
2017-02-22T09:05:43.497Z,25.7
2017-02-22T09:06:41.220Z,25.7
2017-02-22T09:07:43.938Z,25.7
2017-02-22T09:08:42.933Z,25.7
2017-02-22T09:09:49.728Z,25.8
2017-02-22T09:10:43.193Z,25.8
2017-02-22T09:11:43.024Z,25.9
2017-02-22T09:12:41.379Z,25.9
2017-02-22T09:13:43.097Z,26
2017-02-22T09:14:43.249Z,26.1
2017-02-22T09:15:42.200Z,26.1
2017-02-22T09:16:41.812Z,26.2
2017-02-22T09:17:44.665Z,26.3
2017-02-22T09:18:44.439Z,26.4
2017-02-22T09:19:41.914Z,26.4
2017-02-22T09:20:42.032Z,26.5
2017-02-22T09:21:44.659Z,26.5
2017-02-22T09:22:43.710Z,26.6
2017-02-22T09:23:42.761Z,26.6
2017-02-22T09:24:42.050Z,26.7
2017-02-22T09:25:43.728Z,26.7
2017-02-22T09:26:42.286Z,26.8
2017-02-22T09:27:42.385Z,26.8
2017-02-22T09:28:42.422Z,26.9
2017-02-22T09:29:44.087Z,26.9
2017-02-22T09:30:43.161Z,27
2017-02-22T09:31:42.469Z,27
2017-02-22T09:32:44.243Z,27
2017-02-22T09:33:44.324Z,27.1
2017-02-22T09:34:45.615Z,27.1
2017-02-22T09:35:42.830Z,27.2
2017-02-22T09:36:42.749Z,27.2
2017-02-22T09:37:43.533Z,27.2
2017-02-22T09:38:44.485Z,27.3
2017-02-22T09:39:44.513Z,27.3
2017-02-22T09:40:42.947Z,27.3
2017-02-22T09:41:42.958Z,27.4
2017-02-22T09:42:43.202Z,27.4
2017-02-22T09:43:45.326Z,27.4
2017-02-22T09:44:43.249Z,27.5
2017-02-22T09:45:45.404Z,27.5
2017-02-22T09:46:43.507Z,27.5
2017-02-22T09:47:43.975Z,27.5
2017-02-22T09:48:44.879Z,27.6
2017-02-22T09:49:45.029Z,27.6
2017-02-22T09:50:44.097Z,27.6
2017-02-22T09:51:45.215Z,27.6
2017-02-22T09:52:45.722Z,27.7
2017-02-22T09:53:44.292Z,27.7
2017-02-22T09:54:47.371Z,27.7
2017-02-22T09:55:45.912Z,27.7
2017-02-22T09:56:45.464Z,27.7
2017-02-22T09:57:43.760Z,27.6
2017-02-22T09:58:45.548Z,27.6
2017-02-22T09:59:45.313Z,27.4
2017-02-22T10:00:45.438Z,27.3
2017-02-22T10:01:45.403Z,27.2
2017-02-22T10:02:43.966Z,27.2
2017-02-22T10:03:43.979Z,27
2017-02-22T10:04:44.184Z,27
2017-02-22T10:05:45.519Z,26.9
2017-02-22T10:06:44.037Z,26.8
2017-02-22T10:07:45.651Z,26.7
2017-02-22T10:08:44.052Z,26.6
2017-02-22T10:09:45.694Z,26.6
2017-02-22T10:10:46.074Z,26.6
2017-02-22T10:11:46.499Z,26.5
2017-02-22T10:12:45.827Z,26.4
2017-02-22T10:13:44.399Z,26.3
2017-02-22T10:14:44.357Z,26.2
2017-02-22T10:15:45.989Z,26.2
2017-02-22T10:16:44.711Z,26.2
2017-02-22T10:17:46.126Z,26.2
2017-02-22T10:18:44.521Z,26.3
2017-02-22T10:19:46.242Z,26.4
2017-02-22T10:20:44.595Z,26.4
2017-02-22T10:21:46.226Z,26.5
2017-02-22T10:22:44.890Z,26.5
2017-02-22T10:23:46.433Z,26.6
2017-02-22T10:24:44.795Z,26.7
2017-02-22T10:25:46.598Z,26.7
2017-02-22T10:26:45.048Z,26.8
2017-02-22T10:27:46.623Z,26.9
2017-02-22T10:28:46.806Z,26.9
2017-02-22T10:29:46.647Z,27
2017-02-22T10:30:46.434Z,27
2017-02-22T10:31:45.090Z,27.1
2017-02-22T10:32:45.124Z,27.1
2017-02-22T10:33:46.755Z,27.1
2017-02-22T10:34:47.107Z,27.2
2017-02-22T10:35:47.005Z,27.2
2017-02-22T10:36:45.499Z,27.3
2017-02-22T10:37:45.549Z,27.3
2017-02-22T10:38:47.762Z,27.3
2017-02-22T10:39:47.087Z,27.2
2017-02-22T10:40:48.084Z,27.2
2017-02-22T10:41:47.408Z,27.1
2017-02-22T10:42:47.442Z,27
2017-02-22T10:43:47.472Z,26.9
2017-02-22T10:44:47.422Z,26.9
2017-02-22T10:45:45.787Z,26.8
2017-02-22T10:46:47.762Z,26.7
2017-02-22T10:47:47.706Z,26.6
2017-02-22T10:48:46.622Z,26.5
2017-02-22T10:49:46.064Z,26.5
2017-02-22T10:50:47.725Z,26.4
2017-02-22T10:51:46.310Z,26.4
2017-02-22T10:52:48.081Z,26.3
2017-02-22T10:53:48.105Z,26.3
2017-02-22T10:54:46.506Z,26.2
2017-02-22T10:55:48.078Z,26.2
2017-02-22T10:56:48.141Z,26.1
2017-02-22T10:57:48.294Z,26.1
2017-02-22T10:58:48.363Z,26.1
2017-02-22T10:59:46.642Z,26
2017-02-22T11:00:46.668Z,26
2017-02-22T11:01:46.823Z,25.9
2017-02-22T11:02:48.615Z,25.9
2017-02-22T11:03:47.071Z,25.9
2017-02-22T11:04:47.310Z,25.9
2017-02-22T11:05:47.128Z,25.9
2017-02-22T11:06:48.977Z,25.9
2017-02-22T11:07:47.214Z,25.8
2017-02-22T11:08:47.121Z,25.8
2017-02-22T11:09:47.316Z,25.8
2017-02-22T11:10:50.271Z,25.8
2017-02-22T11:11:48.867Z,25.8
2017-02-22T11:12:47.302Z,25.7
2017-02-22T11:13:49.507Z,25.7
2017-02-22T11:14:49.103Z,25.7
2017-02-22T11:15:48.011Z,25.8
2017-02-22T11:16:49.573Z,25.8
2017-02-22T11:17:49.286Z,25.9
2017-02-22T11:18:47.994Z,26
2017-02-22T11:19:48.373Z,26
2017-02-22T11:20:48.556Z,26.1
2017-02-22T11:21:49.697Z,26.1
2017-02-22T11:22:49.729Z,26.2
2017-02-22T11:23:51.109Z,26.2
2017-02-22T11:24:50.518Z,26.3
2017-02-22T11:25:49.733Z,26.4
2017-02-22T11:26:48.905Z,26.5
2017-02-22T11:27:48.276Z,26.5
2017-02-22T11:28:48.290Z,26.6
2017-02-22T11:29:49.089Z,26.6
2017-02-22T11:30:49.033Z,26.7
2017-02-22T11:31:49.872Z,26.7
2017-02-22T11:32:48.332Z,26.7
2017-02-22T11:33:48.826Z,26.8
2017-02-22T11:34:50.123Z,26.9
2017-02-22T11:35:50.745Z,26.9
2017-02-22T11:36:48.665Z,27
2017-02-22T11:37:50.327Z,27
2017-02-22T11:38:50.958Z,27.1
2017-02-22T11:39:50.417Z,27.1
2017-02-22T11:40:50.992Z,27.1
2017-02-22T11:41:48.945Z,27.2
2017-02-22T11:42:49.026Z,27.2
2017-02-22T11:43:48.981Z,27.3
2017-02-22T11:44:49.130Z,27.3
2017-02-22T11:45:49.193Z,27.3
2017-02-22T11:46:50.849Z,27.4
2017-02-22T11:47:50.830Z,27.4
2017-02-22T11:48:50.949Z,27.4
2017-02-22T11:49:51.061Z,27.5
2017-02-22T11:50:50.058Z,27.5
2017-02-22T11:51:49.553Z,27.5
2017-02-22T11:52:49.453Z,27.5
2017-02-22T11:53:50.192Z,27.6
2017-02-22T11:54:51.128Z,27.6
2017-02-22T11:55:51.277Z,27.5
2017-02-22T11:56:49.783Z,27.4
2017-02-22T11:57:49.791Z,27.3
2017-02-22T11:58:51.326Z,27.2
2017-02-22T11:59:49.878Z,27
2017-02-22T12:00:50.447Z,26.9
2017-02-22T12:01:49.810Z,26.8
2017-02-22T12:02:51.555Z,26.7
2017-02-22T12:03:51.458Z,26.6
2017-02-22T12:04:51.502Z,26.5
2017-02-22T12:05:51.720Z,26.4
2017-02-22T12:06:52.983Z,26.3
2017-02-22T12:07:50.085Z,26.2
2017-02-22T12:08:51.709Z,26.2
2017-02-22T12:09:50.271Z,26.1
2017-02-22T12:10:51.075Z,26
2017-02-22T12:11:52.509Z,26
2017-02-22T12:12:51.905Z,25.9
2017-02-22T12:13:51.983Z,25.9
2017-02-22T12:14:51.116Z,25.8
2017-02-22T12:15:51.367Z,25.8
2017-02-22T12:16:52.164Z,25.7
2017-02-22T12:17:50.648Z,25.6
2017-02-22T12:18:50.815Z,25.7
2017-02-22T12:19:52.384Z,25.6
2017-02-22T12:20:52.603Z,25.6
2017-02-22T12:21:52.600Z,25.5
2017-02-22T12:22:53.214Z,25.5
2017-02-22T12:23:51.056Z,25.5
2017-02-22T12:24:51.195Z,25.4
2017-02-22T12:25:51.182Z,25.4
2017-02-22T12:26:51.832Z,25.3
2017-02-22T12:27:53.611Z,25.3
2017-02-22T12:28:53.044Z,25.3
2017-02-22T12:29:53.040Z,25.3
2017-02-22T12:30:53.277Z,25.3
2017-02-22T12:31:51.579Z,25.3
2017-02-22T12:32:53.997Z,25.3
2017-02-22T12:33:51.777Z,25.3
2017-02-22T12:34:52.460Z,25.2
2017-02-22T12:35:51.956Z,25.2
2017-02-22T12:36:51.802Z,25.2
2017-02-22T12:37:51.834Z,25.2
2017-02-22T12:38:53.490Z,25.2
2017-02-22T12:39:51.876Z,25.1
2017-02-22T12:40:53.640Z,25.1
2017-02-22T12:41:52.011Z,25.1
2017-02-22T12:42:52.525Z,25.1
2017-02-22T12:43:52.029Z,25.1
2017-02-22T12:44:53.653Z,25
2017-02-22T12:45:52.480Z,25
2017-02-22T12:46:52.975Z,25
2017-02-22T12:47:52.280Z,25
2017-02-22T12:48:52.253Z,25
2017-02-22T12:49:53.870Z,25
2017-02-22T12:50:52.290Z,25
2017-02-22T12:51:52.313Z,25
2017-02-22T12:52:52.337Z,25
2017-02-22T12:53:52.595Z,24.9
2017-02-22T12:54:54.181Z,24.9
2017-02-22T12:55:54.793Z,24.9
2017-02-22T12:56:54.108Z,24.9
2017-02-22T12:57:52.739Z,24.9
2017-02-22T12:58:54.855Z,24.9
2017-02-22T12:59:54.348Z,24.9
2017-02-22T13:00:52.768Z,24.9
2017-02-22T13:01:54.298Z,24.9
2017-02-22T13:02:52.914Z,25
2017-02-22T13:03:54.465Z,24.9
2017-02-22T13:04:52.955Z,24.9
2017-02-22T13:05:54.462Z,24.9
2017-02-22T13:06:53.642Z,24.9
2017-02-22T13:07:53.140Z,24.9
2017-02-22T13:08:54.694Z,24.9
2017-02-22T13:09:55.398Z,24.9
2017-02-22T13:10:53.595Z,24.9
2017-02-22T13:11:53.124Z,24.9
2017-02-22T13:12:55.569Z,24.8
2017-02-22T13:13:54.716Z,24.7
2017-02-22T13:14:54.694Z,24.7
2017-02-22T13:15:56.823Z,24.7
2017-02-22T13:16:55.952Z,24.7
2017-02-22T13:17:56.876Z,24.8
2017-02-22T13:18:56.763Z,24.8
2017-02-22T13:19:56.857Z,24.9
2017-02-22T13:20:56.010Z,25